createdAt,value
2022-07-25T00:00:52.607Z,72.34
2022-07-25T00:01:52.517Z,72.25
2022-07-25T00:02:51.480Z,72.44
2022-07-25T00:03:52.145Z,72.73
2022-07-25T00:04:51.991Z,72.06
2022-07-25T00:05:51.725Z,73.02
2022-07-25T00:06:51.717Z,72.92
2022-07-25T00:07:51.725Z,73.11
2022-07-25T00:08:51.453Z,73.11
2022-07-25T00:09:51.707Z,73.11
2022-07-25T00:10:51.706Z,72.83
2022-07-25T00:11:51.706Z,73.02
2022-07-25T00:12:51.696Z,72.92
2022-07-25T00:13:51.437Z,72.73
2022-07-25T00:14:51.430Z,73.02
2022-07-25T00:15:51.882Z,73.02
2022-07-25T00:16:51.684Z,72.73
2022-07-25T00:17:51.688Z,73.69
2022-07-25T00:18:51.413Z,73.41
2022-07-25T00:19:51.664Z,73.6
2022-07-25T00:20:51.668Z,73.41
2022-07-25T00:21:51.657Z,73.31
2022-07-25T00:22:51.649Z,73.31
2022-07-25T00:23:51.650Z,73.31
2022-07-25T00:24:51.387Z,73.6
2022-07-25T00:25:51.661Z,73.41
2022-07-25T00:26:51.631Z,73.21
2022-07-25T00:27:51.628Z,72.92
2022-07-25T00:28:51.632Z,73.21
2022-07-25T00:29:51.625Z,72.83
2022-07-25T00:30:51.511Z,73.5
2022-07-25T00:31:51.744Z,73.5
2022-07-25T00:32:51.613Z,73.02
2022-07-25T00:33:51.351Z,73.6
2022-07-25T00:34:51.611Z,73.41
2022-07-25T00:35:51.590Z,73.21
2022-07-25T00:36:51.336Z,73.31
2022-07-25T00:37:52.123Z,73.41
2022-07-25T00:38:52.122Z,74.08
2022-07-25T00:39:52.106Z,74.08
2022-07-25T00:40:58.094Z,73.79
2022-07-25T00:41:52.101Z,73.88
2022-07-25T00:42:51.839Z,73.79
2022-07-25T00:43:52.087Z,73.79
2022-07-25T00:44:52.092Z,73.6
2022-07-25T00:45:51.833Z,73.69
2022-07-25T00:46:52.026Z,73.69
2022-07-25T00:47:51.838Z,73.88
2022-07-25T00:48:52.209Z,73.6
2022-07-25T00:49:52.072Z,74.27
2022-07-25T00:50:51.813Z,74.27
2022-07-25T00:51:52.054Z,73.98
2022-07-25T00:52:51.827Z,73.98
2022-07-25T00:53:51.796Z,74.08
2022-07-25T00:54:52.056Z,74.27
2022-07-25T00:55:52.038Z,74.27
2022-07-25T00:56:52.034Z,74.17
2022-07-25T00:57:52.029Z,74.17
2022-07-25T00:58:52.035Z,74.27
2022-07-25T00:59:51.765Z,74.55
2022-07-25T01:00:52.020Z,73.88
2022-07-25T01:01:51.904Z,73.98
2022-07-25T01:02:53.323Z,74.27
2022-07-25T01:03:51.749Z,74.08
2022-07-25T01:04:52.004Z,74.08
2022-07-25T01:05:55.863Z,74.65
2022-07-25T01:06:52.001Z,74.08
2022-07-25T01:07:51.734Z,74.27
2022-07-25T01:08:51.986Z,74.17
2022-07-25T01:09:51.980Z,74.27
2022-07-25T01:10:51.973Z,74.27
2022-07-25T01:11:51.716Z,73.98
2022-07-25T01:12:51.969Z,73.98
2022-07-25T01:13:51.965Z,73.98
2022-07-25T01:14:51.955Z,74.08
2022-07-25T01:15:52.069Z,73.88
2022-07-25T01:16:52.966Z,74.08
2022-07-25T01:17:51.943Z,73.98
2022-07-25T01:18:51.686Z,73.98
2022-07-25T01:19:51.941Z,74.08
2022-07-25T01:20:51.931Z,74.46
2022-07-25T01:21:51.936Z,74.08
2022-07-25T01:22:51.933Z,74.52
2022-07-25T01:23:51.925Z,74.81
2022-07-25T01:24:52.771Z,74.46
2022-07-25T01:25:51.914Z,74.75
2022-07-25T01:26:51.909Z,74.43
2022-07-25T01:27:57.519Z,74.46
2022-07-25T01:28:51.894Z,74.46
2022-07-25T01:29:51.892Z,74.62
2022-07-25T01:30:52.005Z,74.52
2022-07-25T01:31:51.885Z,74.62
2022-07-25T01:32:51.884Z,74.81
2022-07-25T01:33:51.904Z,74.81
2022-07-25T01:34:51.869Z,74.62
2022-07-25T01:35:51.871Z,74.81
2022-07-25T01:36:51.874Z,74.81
2022-07-25T01:37:51.862Z,74.65
2022-07-25T01:38:56.380Z,75.13
2022-07-25T01:39:51.857Z,74.85
2022-07-25T01:40:51.587Z,75.04
2022-07-25T01:41:51.837Z,74.75
2022-07-25T01:42:51.831Z,75
2022-07-25T01:43:51.831Z,75
2022-07-25T01:44:51.576Z,74.62
2022-07-25T01:45:51.936Z,74.81
2022-07-25T01:46:51.981Z,74.52
2022-07-25T01:47:51.556Z,74.71
2022-07-25T01:48:51.934Z,74.65
2022-07-25T01:49:51.808Z,74.71
2022-07-25T01:50:52.297Z,74.81
2022-07-25T01:51:51.545Z,74.81
2022-07-25T01:52:51.791Z,74.71
2022-07-25T01:53:51.793Z,75
2022-07-25T01:54:51.787Z,75.2
2022-07-25T01:55:52.214Z,74.65
2022-07-25T01:56:51.773Z,74.62
2022-07-25T01:57:52.393Z,74.81
2022-07-25T01:58:51.765Z,74.71
2022-07-25T01:59:51.507Z,74.52
2022-07-25T02:00:51.503Z,74.62
2022-07-25T02:01:51.962Z,74.71
2022-07-25T02:02:51.757Z,75.48
2022-07-25T02:03:51.747Z,75.57
2022-07-25T02:04:51.933Z,75.48
2022-07-25T02:05:51.730Z,75.1
2022-07-25T02:06:51.733Z,75.1
2022-07-25T02:07:51.726Z,75
2022-07-25T02:08:52.300Z,75.1
2022-07-25T02:09:57.163Z,75.1
2022-07-25T02:10:51.454Z,75.67
2022-07-25T02:11:51.708Z,75.48
2022-07-25T02:12:51.710Z,75.48
2022-07-25T02:13:51.696Z,75.57
2022-07-25T02:14:51.691Z,75.57
2022-07-25T02:15:51.689Z,75.48
2022-07-25T02:16:51.806Z,75.67
2022-07-25T02:17:51.682Z,75.67
2022-07-25T02:18:51.688Z,75.57
2022-07-25T02:19:51.681Z,75.67
2022-07-25T02:20:51.407Z,75.48
2022-07-25T02:21:51.404Z,75.67
2022-07-25T02:22:51.656Z,75.77
2022-07-25T02:23:51.653Z,75.77
2022-07-25T02:24:51.388Z,75.67
2022-07-25T02:25:51.638Z,75.87
2022-07-25T02:26:51.643Z,75.77
2022-07-25T02:27:51.636Z,76.25
2022-07-25T02:28:51.638Z,75.87
2022-07-25T02:29:51.623Z,75.77
2022-07-25T02:30:51.761Z,75.77
2022-07-25T02:31:51.614Z,75.87
2022-07-25T02:32:51.611Z,76.25
2022-07-25T02:33:51.662Z,76.15
2022-07-25T02:34:51.602Z,76.82
2022-07-25T02:35:51.595Z,76.44
2022-07-25T02:36:51.612Z,76.44
2022-07-25T02:37:51.590Z,76.64
2022-07-25T02:38:51.583Z,76.4
2022-07-25T02:39:51.581Z,77.11
2022-07-25T02:40:51.578Z,76.98
2022-07-25T02:41:51.565Z,77.01
2022-07-25T02:42:51.566Z,76.5
2022-07-25T02:43:51.568Z,77.01
2022-07-25T02:44:51.553Z,76.92
2022-07-25T02:45:51.712Z,77.26
2022-07-25T02:46:51.294Z,77.26
2022-07-25T02:47:51.545Z,76.69
2022-07-25T02:48:51.706Z,76.79
2022-07-25T02:49:51.531Z,76.88
2022-07-25T02:50:51.274Z,77.4
2022-07-25T02:51:51.271Z,77.4
2022-07-25T02:52:51.263Z,77.08
2022-07-25T02:54:00.871Z,77.11
2022-07-25T02:54:52.042Z,77.17
2022-07-25T02:55:51.510Z,77.46
2022-07-25T02:56:51.496Z,76.88
2022-07-25T02:57:51.506Z,76.88
2022-07-25T02:58:51.556Z,77.08
2022-07-25T02:59:51.482Z,77.84
2022-07-25T03:00:51.556Z,77.26
2022-07-25T03:01:51.638Z,77.26
2022-07-25T03:02:51.469Z,77.17
2022-07-25T03:03:51.632Z,77.26
2022-07-25T03:04:51.465Z,77.08
2022-07-25T03:05:51.311Z,77.08
2022-07-25T03:06:51.450Z,77.26
2022-07-25T03:07:51.449Z,77.17
2022-07-25T03:08:51.185Z,77.46
2022-07-25T03:09:51.441Z,77.46
2022-07-25T03:10:51.433Z,77.84
2022-07-25T03:11:51.174Z,77.46
2022-07-25T03:12:51.422Z,77.75
2022-07-25T03:13:51.446Z,77.75
2022-07-25T03:14:51.410Z,78.13
2022-07-25T03:15:53.044Z,78.13
2022-07-25T03:16:51.541Z,77.94
2022-07-25T03:17:51.152Z,78.32
2022-07-25T03:18:51.153Z,78.52
2022-07-25T03:19:51.393Z,78.32
2022-07-25T03:20:51.388Z,78.99
2022-07-25T03:21:51.388Z,78.8
2022-07-25T03:22:51.570Z,78.9
2022-07-25T03:23:55.039Z,78.99
2022-07-25T03:24:51.366Z,78.8
2022-07-25T03:25:51.365Z,78.8
2022-07-25T03:26:51.361Z,78.7
2022-07-25T03:27:51.354Z,78.7
2022-07-25T03:28:51.346Z,79.09
2022-07-25T03:29:51.345Z,79.09
2022-07-25T03:30:51.340Z,78.8
2022-07-25T03:31:51.258Z,78.8
2022-07-25T03:32:51.328Z,78.7
2022-07-25T03:50:16.031Z,79.28
2022-07-25T03:51:15.769Z,79.28
2022-07-25T03:52:16.018Z,79.19
2022-07-25T03:53:16.007Z,79.19
2022-07-25T03:54:15.742Z,79.67
2022-07-25T03:55:15.985Z,79.28
2022-07-25T03:56:16.004Z,79.86
2022-07-25T03:57:15.973Z,80.05
2022-07-25T03:58:15.972Z,80.53
2022-07-25T03:59:15.962Z,80.53
2022-07-25T04:00:15.966Z,80.43
2022-07-25T04:01:15.883Z,80.63
2022-07-25T04:02:16.131Z,80.73
2022-07-25T04:03:15.936Z,80.63
2022-07-25T04:04:15.939Z,80.63
2022-07-25T04:05:15.673Z,80.53
2022-07-25T04:06:15.662Z,80.24
2022-07-25T04:07:15.910Z,79.96
2022-07-25T04:08:15.909Z,80.43
2022-07-25T04:09:15.898Z,80.34
2022-07-25T04:10:15.896Z,79.86
2022-07-25T04:11:15.886Z,80.15
2022-07-25T04:12:15.625Z,80.24
2022-07-25T04:13:15.878Z,80.15
2022-07-25T04:14:15.878Z,79.38
2022-07-25T04:15:15.875Z,79.19
2022-07-25T04:16:22.125Z,78.9
2022-07-25T04:17:15.818Z,78.94
2022-07-25T04:18:21.847Z,78.65
2022-07-25T04:19:15.603Z,78.75
2022-07-25T04:20:15.850Z,79.03
2022-07-25T04:21:15.843Z,78.55
2022-07-25T04:22:15.833Z,78.55
2022-07-25T04:23:15.823Z,78.75
2022-07-25T04:24:15.817Z,78.27
2022-07-25T04:25:15.814Z,78.17
2022-07-25T04:26:15.811Z,78.17
2022-07-25T04:27:15.558Z,78.55
2022-07-25T04:28:15.561Z,78.75
2022-07-25T04:29:15.798Z,78.36
2022-07-25T04:30:26.452Z,77.88
2022-07-25T04:31:15.890Z,78.17
2022-07-25T04:32:19.017Z,77.59
2022-07-25T04:33:15.773Z,77.5
2022-07-25T04:34:15.776Z,77.59
2022-07-25T04:35:15.516Z,77.69
2022-07-25T04:36:15.771Z,77.59
2022-07-25T04:37:15.499Z,78.02
2022-07-25T04:38:15.505Z,77.63
2022-07-25T04:39:15.914Z,77.31
2022-07-25T04:40:15.652Z,77.25
2022-07-25T04:41:15.910Z,77.25
2022-07-25T04:42:15.893Z,76.86
2022-07-25T04:43:15.901Z,76.48
2022-07-25T04:44:15.884Z,76.57
2022-07-25T04:45:17.851Z,76.57
2022-07-25T04:46:16.012Z,76.48
2022-07-25T04:47:15.949Z,76.48
2022-07-25T04:48:16.198Z,76.48
2022-07-25T04:49:16.364Z,76.67
2022-07-25T04:50:16.201Z,76.67
2022-07-25T04:51:16.198Z,76.39
2022-07-25T04:52:16.345Z,76.61
2022-07-25T04:53:16.192Z,76.29
2022-07-25T04:54:15.924Z,76.19
2022-07-25T04:55:16.176Z,75.94
2022-07-25T04:56:16.183Z,76.04
2022-07-25T04:57:16.168Z,75.94
2022-07-25T04:58:16.176Z,75.75
2022-07-25T04:59:15.900Z,75.94
2022-07-25T05:00:18.153Z,75.75
2022-07-25T05:01:16.328Z,75.56
2022-07-25T05:02:16.368Z,75.65
2022-07-25T05:03:16.137Z,74.88
2022-07-25T05:04:16.126Z,74.79
2022-07-25T05:05:23.975Z,74.88
2022-07-25T05:06:16.910Z,74.05
2022-07-25T05:07:16.157Z,74.15
2022-07-25T05:08:15.879Z,73.86
2022-07-25T05:09:16.136Z,73.96
2022-07-25T05:10:16.111Z,74.25
2022-07-25T05:11:16.124Z,74.25
2022-07-25T05:12:16.169Z,73.96
2022-07-25T05:13:18.346Z,73.28
2022-07-25T05:14:16.093Z,73.77
2022-07-25T05:15:15.836Z,73.86
2022-07-25T05:16:16.281Z,73.77
2022-07-25T05:17:16.087Z,73.96
2022-07-25T05:18:16.082Z,73.47
2022-07-25T05:19:16.084Z,73.57
2022-07-25T05:20:16.085Z,73.86
2022-07-25T05:21:16.727Z,73.86
2022-07-25T05:22:16.072Z,73.77
2022-07-25T05:23:16.058Z,73.67
2022-07-25T05:24:16.051Z,72.84
2022-07-25T05:25:16.066Z,73.13
2022-07-25T05:26:15.789Z,72.84
2022-07-25T05:27:15.815Z,72.45
2022-07-25T05:28:16.047Z,72.17
2022-07-25T05:29:15.784Z,71.4
2022-07-25T05:30:15.774Z,71.01
2022-07-25T05:31:16.139Z,71.3
2022-07-25T05:32:15.768Z,71.2
2022-07-25T05:33:16.032Z,71.11
2022-07-25T05:34:16.019Z,70.09
2022-07-25T05:35:16.019Z,70.28
2022-07-25T05:36:16.094Z,69.41
2022-07-25T05:37:15.758Z,69.02
2022-07-25T05:38:15.752Z,69.12
2022-07-25T05:39:16.003Z,69.22
2022-07-25T05:40:16.007Z,69.02
2022-07-25T05:41:15.746Z,69.06
2022-07-25T05:42:15.993Z,68.87
2022-07-25T05:43:15.986Z,68.96
2022-07-25T05:44:15.749Z,69.06
2022-07-25T05:45:15.733Z,68.77
2022-07-25T05:46:16.167Z,68.19
2022-07-25T05:47:15.871Z,68.48
2022-07-25T05:48:15.717Z,68.29
2022-07-25T05:49:16.192Z,68.48
2022-07-25T05:50:15.718Z,68.29
2022-07-25T05:51:15.965Z,67.42
2022-07-25T05:52:15.966Z,67.71
2022-07-25T05:53:15.707Z,67.81
2022-07-25T05:54:15.708Z,67.23
2022-07-25T05:55:15.962Z,66.85
2022-07-25T05:56:15.957Z,66.85
2022-07-25T05:57:15.949Z,66.59
2022-07-25T05:58:15.943Z,65.81
2022-07-25T05:59:15.941Z,66.01
2022-07-25T06:00:15.684Z,65.63
2022-07-25T06:01:15.944Z,65.24
2022-07-25T06:02:16.147Z,65.72
2022-07-25T06:03:16.215Z,65.05
2022-07-25T06:04:15.941Z,64.86
2022-07-25T06:05:15.925Z,64.66
2022-07-25T06:06:15.926Z,64.86
2022-07-25T06:07:19.412Z,65.17
2022-07-25T06:08:15.917Z,65.08
2022-07-25T06:09:15.922Z,65.08
2022-07-25T06:10:15.924Z,64.98
2022-07-25T06:11:15.913Z,65.08
2022-07-25T06:12:16.484Z,64.69
2022-07-25T06:13:16.691Z,64.79
2022-07-25T06:14:16.075Z,64.79
2022-07-25T06:15:26.755Z,64.89
2022-07-25T06:16:15.995Z,65.47
2022-07-25T06:17:15.917Z,64.79
2022-07-25T06:18:15.894Z,64.34
2022-07-25T06:19:15.656Z,64.21
2022-07-25T06:20:15.897Z,64.31
2022-07-25T06:21:15.892Z,63.67
2022-07-25T06:22:16.953Z,63.85
2022-07-25T06:23:15.883Z,63.47
2022-07-25T06:24:15.893Z,63.57
2022-07-25T06:25:15.626Z,63.57
2022-07-25T06:26:15.877Z,63.76
2022-07-25T06:27:25.000Z,63.57
2022-07-25T06:28:20.490Z,63.95
2022-07-25T06:29:15.888Z,62.99
2022-07-25T06:30:22.554Z,62.54
2022-07-25T06:31:15.726Z,62.92
2022-07-25T06:32:15.862Z,62.92
2022-07-25T06:33:15.867Z,63.21
2022-07-25T06:34:15.869Z,63.12
2022-07-25T06:35:15.921Z,63.21
2022-07-25T06:36:15.603Z,63.02
2022-07-25T06:37:15.860Z,63.31
2022-07-25T06:38:15.857Z,63.21
2022-07-25T06:39:16.872Z,62.15
2022-07-25T06:40:15.859Z,62.34
2022-07-25T06:41:15.853Z,62.15
2022-07-25T06:42:15.597Z,62.08
2022-07-25T06:43:15.863Z,61.8
2022-07-25T06:44:15.851Z,61.41
2022-07-25T06:45:15.847Z,62.08
2022-07-25T06:46:15.938Z,61.51
2022-07-25T06:47:15.850Z,60.93
2022-07-25T06:48:15.854Z,61.02
2022-07-25T06:49:15.705Z,60.96
2022-07-25T06:50:16.969Z,60.96
2022-07-25T06:51:15.582Z,60.21
2022-07-25T06:52:15.584Z,58.89
2022-07-25T06:53:15.843Z,55.88
2022-07-25T06:54:15.592Z,53.02
2022-07-25T06:55:15.838Z,49.61
2022-07-25T06:56:19.897Z,48.88
2022-07-25T06:57:15.836Z,47.17
2022-07-25T06:58:15.829Z,44.57
2022-07-25T06:59:15.847Z,42.86
2022-07-25T07:00:15.581Z,41.81
2022-07-25T07:01:15.711Z,40
2022-07-25T07:02:15.618Z,38.48
2022-07-25T07:03:16.002Z,38.22
2022-07-25T07:04:15.588Z,38.06
2022-07-25T07:05:16.565Z,36.9
2022-07-25T07:06:15.847Z,36.16
2022-07-25T07:07:15.859Z,32.95
2022-07-25T07:08:15.958Z,32.89
2022-07-25T07:09:15.858Z,30.46
2022-07-25T07:10:15.870Z,29.59
2022-07-25T07:11:15.872Z,29.2
2022-07-25T07:12:15.868Z,28.61
2022-07-25T07:13:17.665Z,28.72
2022-07-25T07:14:15.876Z,28.05
2022-07-25T07:15:15.882Z,28.54
2022-07-25T07:16:16.082Z,27.08
2022-07-25T07:17:15.645Z,26.09
2022-07-25T07:18:15.902Z,27.17
2022-07-25T07:19:15.905Z,25.99
2022-07-25T07:20:16.189Z,26.29
2022-07-25T07:21:23.401Z,27.26
2022-07-25T07:22:16.056Z,27.16
2022-07-25T07:23:18.922Z,26.08
2022-07-25T07:24:26.396Z,25.7
2022-07-25T07:25:16.586Z,27.17
2022-07-25T07:26:15.703Z,26.68
2022-07-25T07:27:15.717Z,25.7
2022-07-25T07:28:15.726Z,25.82
2022-07-25T07:29:15.724Z,25.82
2022-07-25T07:30:17.633Z,24.85
2022-07-25T07:31:28.320Z,24.86
2022-07-25T07:32:27.899Z,25.07
2022-07-25T07:33:28.151Z,23.77
2022-07-25T07:34:28.166Z,24.45
2022-07-25T07:35:30.388Z,24.85
2022-07-25T07:36:28.183Z,24.85
2022-07-25T07:37:31.666Z,24.76
2022-07-25T07:38:28.202Z,24.17
2022-07-25T07:39:27.950Z,23.28
2022-07-25T07:40:27.964Z,24.66
2022-07-25T07:41:30.018Z,23.48
2022-07-25T07:42:27.977Z,24.55
2022-07-25T07:43:32.579Z,24.46
2022-07-25T07:44:27.997Z,24.97
2022-07-25T07:45:28.265Z,24.88
2022-07-25T07:46:28.416Z,23.21
2022-07-25T07:47:28.021Z,22.82
2022-07-25T07:48:28.326Z,22.82
2022-07-25T07:49:28.396Z,21.84
2022-07-25T07:50:28.076Z,22.03
2022-07-25T07:51:28.074Z,21.93
2022-07-25T07:52:28.333Z,22.63
2022-07-25T07:53:28.340Z,21.94
2022-07-25T07:54:28.348Z,21.64
2022-07-25T07:55:29.003Z,22.72
2022-07-25T07:56:29.013Z,22.91
2022-07-25T07:57:29.015Z,23
2022-07-25T07:58:29.032Z,23.6
2022-07-25T07:59:28.778Z,22.31
2022-07-25T08:00:28.794Z,21.53
2022-07-25T08:01:29.165Z,21.71
2022-07-25T08:02:29.231Z,21.53
2022-07-25T08:03:28.980Z,22.01
2022-07-25T08:04:28.840Z,23.1
2022-07-25T08:05:29.112Z,23.59
2022-07-25T08:06:28.853Z,23.3
2022-07-25T08:07:29.116Z,22.22
2022-07-25T08:08:33.419Z,21.71
2022-07-25T08:09:28.876Z,22.5
2022-07-25T08:10:29.140Z,22.49
2022-07-25T08:11:28.900Z,23.37
2022-07-25T08:12:29.444Z,22.96
2022-07-25T08:13:30.406Z,23.83
2022-07-25T08:14:28.917Z,24.9
2022-07-25T08:15:29.189Z,25.76
2022-07-25T08:16:29.069Z,26.91
2022-07-25T08:17:31.266Z,27
2022-07-25T08:18:29.214Z,26.79
2022-07-25T08:19:29.078Z,27.75
2022-07-25T08:20:40.754Z,27.92
2022-07-25T08:21:29.238Z,29.77
2022-07-25T08:22:29.232Z,31.13
2022-07-25T08:23:29.243Z,31.01
2022-07-25T08:24:29.265Z,31.8
2022-07-25T08:25:29.003Z,31.49
2022-07-25T08:26:29.266Z,33.04
2022-07-25T08:27:29.032Z,32.73
2022-07-25T08:28:29.275Z,32.92
2022-07-25T08:29:30.780Z,34.08
2022-07-25T08:30:29.055Z,32.42
2022-07-25T08:31:29.162Z,34.94
2022-07-25T08:32:29.073Z,34.94
2022-07-25T08:33:29.315Z,35.12
2022-07-25T08:34:29.862Z,35.31
2022-07-25T08:35:29.317Z,33.85
2022-07-25T08:36:34.528Z,33.56
2022-07-25T08:37:29.341Z,34.83
2022-07-25T08:38:29.348Z,35.71
2022-07-25T08:39:29.348Z,34.24
2022-07-25T08:40:29.350Z,34.53
2022-07-25T08:41:29.419Z,34.24
2022-07-25T08:42:29.358Z,34.83
2022-07-25T08:43:29.372Z,35.02
2022-07-25T08:44:29.371Z,34.92
2022-07-25T08:45:29.374Z,34.92
2022-07-25T08:46:29.606Z,34.34
2022-07-25T08:47:29.383Z,33.46
2022-07-25T08:48:29.365Z,33.56
2022-07-25T08:49:29.141Z,33.46
2022-07-25T08:50:29.396Z,34.83
2022-07-25T08:51:29.161Z,35.51
2022-07-25T08:52:29.417Z,35.41
2022-07-25T08:53:37.573Z,34.53
2022-07-25T08:54:29.177Z,34.06
2022-07-25T08:55:29.422Z,34.26
2022-07-25T08:56:29.280Z,36.11
2022-07-25T08:57:29.428Z,35.14
2022-07-25T08:58:29.438Z,34.26
2022-07-25T08:59:29.448Z,35.33
2022-07-25T09:00:29.450Z,35.33
2022-07-25T09:01:34.982Z,35.14
2022-07-25T09:02:29.490Z,36.21
2022-07-25T09:03:29.602Z,36.43
2022-07-25T09:04:29.478Z,35.84
2022-07-25T09:05:29.242Z,34.18
2022-07-25T09:06:29.303Z,33.11
2022-07-25T09:07:29.557Z,32.03
2022-07-25T09:08:29.564Z,32.23
2022-07-25T09:09:29.316Z,32.91
2022-07-25T09:10:29.593Z,33.4
2022-07-25T09:11:29.845Z,33.2
2022-07-25T09:12:29.583Z,32.91
2022-07-25T09:13:29.585Z,32.62
2022-07-25T09:14:29.641Z,32.42
2022-07-25T09:15:32.031Z,32.03
2022-07-25T09:16:29.781Z,32.32
2022-07-25T09:17:30.853Z,31.52
2022-07-25T09:18:29.355Z,31.33
2022-07-25T09:19:29.612Z,32.21
2022-07-25T09:20:29.619Z,31.62
2022-07-25T09:21:29.626Z,32.01
2022-07-25T09:22:29.630Z,31.92
2022-07-25T09:23:29.652Z,32.4
2022-07-25T09:24:29.382Z,31.52
2022-07-25T09:25:29.640Z,31.04
2022-07-25T09:26:31.597Z,31.33
2022-07-25T09:27:29.394Z,31.62
2022-07-25T09:28:29.663Z,31.62
2022-07-25T09:29:29.661Z,32.13
2022-07-25T09:30:29.681Z,30.96
2022-07-25T09:31:29.858Z,30.66
2022-07-25T09:32:29.679Z,30.27
2022-07-25T09:33:29.423Z,30.66
2022-07-25T09:34:29.685Z,33.59
2022-07-25T09:35:29.688Z,32.71
2022-07-25T09:36:29.710Z,32.81
2022-07-25T09:37:29.722Z,31.85
2022-07-25T09:38:29.708Z,30.19
2022-07-25T09:39:29.705Z,29.7
2022-07-25T09:40:29.718Z,30.58
2022-07-25T09:41:29.724Z,31.26
2022-07-25T09:42:29.474Z,31.07
2022-07-25T09:43:29.725Z,30.97
2022-07-25T09:44:29.482Z,30.68
2022-07-25T09:45:33.919Z,32.73
2022-07-25T09:46:29.867Z,30.58
2022-07-25T09:47:29.757Z,30.77
2022-07-25T09:48:29.848Z,30.68
2022-07-25T09:49:29.770Z,32.52
2022-07-25T09:50:29.508Z,32.71
2022-07-25T09:51:29.770Z,33.01
2022-07-25T09:52:29.779Z,31.85
2022-07-25T09:53:29.780Z,30.47
2022-07-25T09:54:29.529Z,30.58
2022-07-25T09:55:29.539Z,30.76
2022-07-25T09:56:29.794Z,30.86
2022-07-25T09:57:29.800Z,31.15
2022-07-25T09:58:29.798Z,32.32
2022-07-25T09:59:29.808Z,31.84
2022-07-25T10:00:29.565Z,32.23
2022-07-25T10:01:29.997Z,32.91
2022-07-25T10:02:29.739Z,31.84
2022-07-25T10:03:29.823Z,32.13
2022-07-25T10:04:29.574Z,32.13
2022-07-25T10:05:29.831Z,31.93
2022-07-25T10:06:29.587Z,35.06
2022-07-25T10:07:33.896Z,33.22
2022-07-25T10:08:29.976Z,33.02
2022-07-25T10:09:29.998Z,35.27
2022-07-25T10:10:29.985Z,34.29
2022-07-25T10:11:29.740Z,33.31
2022-07-25T10:12:29.991Z,31.67
2022-07-25T10:13:30.024Z,32.65
2022-07-25T10:14:30.006Z,33.82
2022-07-25T10:15:30.015Z,32.55
2022-07-25T10:16:30.203Z,32.16
2022-07-25T10:17:30.015Z,31.08
2022-07-25T10:18:30.049Z,31.77
2022-07-25T10:19:30.026Z,32.16
2022-07-25T10:20:30.029Z,31.96
2022-07-25T10:21:31.049Z,31.48
2022-07-25T10:22:57.950Z,31.78
2022-07-25T10:23:29.790Z,31.78
2022-07-25T10:24:30.055Z,31.68
2022-07-25T10:25:29.812Z,30.82
2022-07-25T10:26:30.058Z,30.8
2022-07-25T10:27:30.078Z,31.68
2022-07-25T10:28:29.822Z,33.94
2022-07-25T10:29:30.080Z,33.45
2022-07-25T10:30:30.280Z,31.8
2022-07-25T10:31:30.074Z,30.91
2022-07-25T10:32:30.092Z,30.72
2022-07-25T10:33:30.174Z,29.53
2022-07-25T10:34:30.571Z,30
2022-07-25T10:35:29.854Z,30.59
2022-07-25T10:36:30.186Z,30.3
2022-07-25T10:37:29.860Z,30.49
2022-07-25T10:38:30.118Z,33.14
2022-07-25T10:39:29.869Z,31.67
2022-07-25T10:40:30.133Z,31.28
2022-07-25T10:41:30.138Z,30.98
2022-07-25T10:42:29.886Z,32.17
2022-07-25T10:43:30.145Z,32.55
2022-07-25T10:44:29.899Z,31.68
2022-07-25T10:45:30.203Z,32.66
2022-07-25T10:46:29.983Z,32.17
2022-07-25T10:47:29.913Z,29.83
2022-07-25T10:48:30.072Z,30.51
2022-07-25T10:49:34.651Z,30.71
2022-07-25T10:50:56.841Z,30.59
2022-07-25T10:51:30.185Z,30.79
2022-07-25T10:52:30.051Z,30.71
2022-07-25T10:53:29.945Z,30.8
2022-07-25T10:54:29.952Z,30.22
2022-07-25T10:55:29.953Z,30.71
2022-07-25T10:56:29.962Z,31.49
2022-07-25T10:57:34.445Z,30.61
2022-07-25T10:58:30.231Z,30.8
2022-07-25T10:59:30.228Z,32.86
2022-07-25T11:00:29.985Z,31.29
2022-07-25T11:01:30.089Z,30.61
2022-07-25T11:02:30.424Z,30.32
2022-07-25T11:03:30.257Z,30.61
2022-07-25T11:04:30.262Z,29.83
2022-07-25T11:05:30.274Z,29.84
2022-07-25T11:06:30.273Z,29.35
2022-07-25T11:07:30.273Z,29.64
2022-07-25T11:08:30.031Z,31.01
2022-07-25T11:09:30.796Z,30.72
2022-07-25T11:10:30.293Z,30.43
2022-07-25T11:11:30.044Z,29.94
2022-07-25T11:12:30.309Z,29.94
2022-07-25T11:13:30.049Z,30.13
2022-07-25T11:14:30.320Z,29.35
2022-07-25T11:15:30.314Z,29.84
2022-07-25T11:16:30.422Z,29.35
2022-07-25T11:17:30.074Z,28
2022-07-25T11:18:30.335Z,28.08
2022-07-25T11:19:30.353Z,28.18
2022-07-25T11:20:30.662Z,28.28
2022-07-25T11:21:30.348Z,28.28
2022-07-25T11:22:30.355Z,29.45
2022-07-25T11:23:30.365Z,30.52
2022-07-25T11:24:30.368Z,29.74
2022-07-25T11:25:30.373Z,30.72
2022-07-25T11:26:30.379Z,32.87
2022-07-25T11:27:30.397Z,30.72
2022-07-25T11:28:30.398Z,31.6
2022-07-25T11:29:30.151Z,30.52
2022-07-25T11:30:30.408Z,30.33
2022-07-25T11:31:30.540Z,31.01
2022-07-25T11:32:30.153Z,29.74
2022-07-25T11:33:30.422Z,30.52
2022-07-25T11:34:30.425Z,29.94
2022-07-25T11:35:30.434Z,29.84
2022-07-25T11:36:30.435Z,29.84
2022-07-25T11:37:31.060Z,30.72
2022-07-25T11:38:30.447Z,31.21
2022-07-25T11:39:30.199Z,30.82
2022-07-25T11:40:30.198Z,29.94
2022-07-25T11:41:30.210Z,30.23
2022-07-25T11:42:30.465Z,29.74
2022-07-25T11:43:30.213Z,30.04
2022-07-25T11:44:30.476Z,29.84
2022-07-25T11:45:30.684Z,30.72
2022-07-25T11:46:30.381Z,29.64
2022-07-25T11:47:30.596Z,29.64
2022-07-25T11:48:30.306Z,29.45
2022-07-25T11:49:30.509Z,28.96
2022-07-25T11:50:30.507Z,29.55
2022-07-25T11:51:30.263Z,30.72
2022-07-25T11:52:30.562Z,31.7
2022-07-25T11:53:30.530Z,30.72
2022-07-25T11:54:30.529Z,30.43
2022-07-25T11:55:30.546Z,29.46
2022-07-25T11:56:46.531Z,28.39
2022-07-25T11:57:30.299Z,27.9
2022-07-25T11:58:30.307Z,28.97
2022-07-25T11:59:30.863Z,26.9
2022-07-25T12:00:30.561Z,27.2
2022-07-25T12:01:30.315Z,26.9
2022-07-25T12:02:30.671Z,25.83
2022-07-25T12:03:30.825Z,26.42
2022-07-25T12:04:30.339Z,25.54
2022-07-25T12:05:30.343Z,26.03
2022-07-25T12:06:30.346Z,26.22
2022-07-25T12:07:30.354Z,27.49
2022-07-25T12:08:30.617Z,26.82
2022-07-25T12:09:30.628Z,26.92
2022-07-25T12:10:30.623Z,28.39
2022-07-25T12:11:30.640Z,29.17
2022-07-25T12:12:30.634Z,28.19
2022-07-25T12:13:30.650Z,27.61
2022-07-25T12:14:37.069Z,27.8
2022-07-25T12:15:30.413Z,27.4
2022-07-25T12:16:30.834Z,26.14
2022-07-25T12:17:30.666Z,28.39
2022-07-25T12:18:30.413Z,28.09
2022-07-25T12:19:30.681Z,27.21
2022-07-25T12:20:30.426Z,27.5
2022-07-25T12:21:30.690Z,26.72
2022-07-25T12:22:30.698Z,27.9
2022-07-25T12:23:30.699Z,27.9
2022-07-25T12:24:30.463Z,27.01
2022-07-25T12:25:33.501Z,26.64
2022-07-25T12:26:30.721Z,26.04
2022-07-25T12:27:30.473Z,26.23
2022-07-25T12:28:30.759Z,27.11
2022-07-25T12:29:30.735Z,27.01
2022-07-25T12:30:30.571Z,27.01
2022-07-25T12:31:30.641Z,26.04
2022-07-25T12:32:30.503Z,25.94
2022-07-25T12:33:30.757Z,26.04
2022-07-25T12:34:30.771Z,26.92
2022-07-25T12:35:30.787Z,27.8
2022-07-25T12:36:30.777Z,27.31
2022-07-25T12:37:31.747Z,27.01
2022-07-25T12:38:30.793Z,26.81
2022-07-25T12:39:30.792Z,27.11
2022-07-25T12:40:30.806Z,26.92
2022-07-25T12:41:30.557Z,27.11
2022-07-25T12:42:30.564Z,27.11
2022-07-25T12:43:30.817Z,26.43
2022-07-25T12:44:31.564Z,25.65
2022-07-25T12:45:31.713Z,27.11
2022-07-25T12:46:31.651Z,26.23
2022-07-25T12:47:31.311Z,26.82
2022-07-25T12:48:31.474Z,26.23
2022-07-25T12:49:31.322Z,26.23
2022-07-25T12:50:31.334Z,26.23
2022-07-25T12:51:31.612Z,26.04
2022-07-25T12:52:31.339Z,26.04
2022-07-25T12:53:31.605Z,25.45
2022-07-25T12:54:32.308Z,25.74
2022-07-25T12:55:31.364Z,25.65
2022-07-25T12:56:31.629Z,26.82
2022-07-25T12:57:31.632Z,25.55
2022-07-25T12:58:31.632Z,27.11
2022-07-25T12:59:31.380Z,27.01
2022-07-25T13:00:31.394Z,27.31
2022-07-25T13:01:31.519Z,27.11
2022-07-25T13:02:31.538Z,26.92
2022-07-25T13:03:31.408Z,27.21
2022-07-25T13:04:31.414Z,26.92
2022-07-25T13:05:31.675Z,27.11
2022-07-25T13:06:34.424Z,27.8
2022-07-25T13:07:31.683Z,27.11
2022-07-25T13:08:31.695Z,27.4
2022-07-25T13:09:31.699Z,26.82
2022-07-25T13:10:31.707Z,26.43
2022-07-25T13:11:31.714Z,27.01
2022-07-25T13:12:31.740Z,26.04